Time;durP1;ratioP1;P1;durP2;ratioP2;P2;SDS_P1;SDS_P2;PMS_P1;PMS_P2;Temp;Humidity;BMP_temperature;BMP_pressure;BME280_temperature;BME280_humidity;BME280_pressure;Samples;Min_cycle;Max_cycle;Signal;HPM_P1;HPM_P2
2023/02/10 00:00:16;;;;;;;6.75;4.20;;;;;;;;;;5112947;28;20027;-62
2023/02/10 00:02:42;;;;;;;7.00;5.07;;;;;;;;;;5112499;28;20031;-62
2023/02/10 00:05:09;;;;;;;6.20;4.32;;;;;;;;;;5112798;28;20015;-62
2023/02/10 00:07:36;;;;;;;12.85;5.32;;;;;;;;;;5109645;28;20020;-62
2023/02/10 00:10:03;;;;;;;15.43;5.53;;;;;;;;;;5107901;28;20493;-62
2023/02/10 00:12:30;;;;;;;6.67;4.30;;;;;;;;;;5107775;28;20032;-63
2023/02/10 00:14:56;;;;;;;5.27;4.20;;;;;;;;;;5107264;28;20058;-62
2023/02/10 00:17:23;;;;;;;6.13;3.57;;;;;;;;;;5089428;28;20059;-62
2023/02/10 00:19:50;;;;;;;7.50;3.63;;;;;;;;;;5111183;28;20453;-62
2023/02/10 00:22:17;;;;;;;10.13;4.43;;;;;;;;;;5112628;28;20028;-62
2023/02/10 00:24:43;;;;;;;10.60;4.67;;;;;;;;;;5110477;28;20027;-62
2023/02/10 00:27:10;;;;;;;9.23;4.67;;;;;;;;;;5092045;28;20525;-61
2023/02/10 00:29:37;;;;;;;6.50;4.43;;;;;;;;;;5092252;28;20020;-62
2023/02/10 00:32:03;;;;;;;6.87;4.07;;;;;;;;;;5089237;28;20024;-62
2023/02/10 00:34:30;;;;;;;5.63;3.00;;;;;;;;;;5087074;28;20092;-61
2023/02/10 00:36:57;;;;;;;4.90;4.10;;;;;;;;;;5092996;28;20031;-62
2023/02/10 00:39:24;;;;;;;7.93;4.77;;;;;;;;;;5089532;28;20040;-62
2023/02/10 00:41:51;;;;;;;8.23;5.87;;;;;;;;;;5087138;28;20031;-62
2023/02/10 00:44:17;;;;;;;9.33;5.07;;;;;;;;;;5089795;28;20486;-63
2023/02/10 00:46:44;;;;;;;7.90;4.13;;;;;;;;;;5092249;28;20501;-62
2023/02/10 00:49:12;;;;;;;8.43;4.73;;;;;;;;;;5093228;28;20119;-62
2023/02/10 00:51:38;;;;;;;11.23;3.83;;;;;;;;;;5112267;28;20030;-62
2023/02/10 00:54:05;;;;;;;5.60;3.60;;;;;;;;;;5099567;28;20024;-62
2023/02/10 00:56:32;;;;;;;7.30;4.20;;;;;;;;;;5090048;28;20122;-62
2023/02/10 00:58:59;;;;;;;12.40;5.10;;;;;;;;;;5086925;28;20016;-62
2023/02/10 01:01:25;;;;;;;6.60;4.67;;;;;;;;;;5086998;28;20077;-62
2023/02/10 01:03:52;;;;;;;8.23;5.07;;;;;;;;;;5087074;28;20031;-61
2023/02/10 01:06:19;;;;;;;7.00;4.53;;;;;;;;;;5095682;28;20020;-62
2023/02/10 01:08:46;;;;;;;6.63;4.10;;;;;;;;;;5106811;28;20102;-62
2023/02/10 01:11:13;;;;;;;6.97;4.60;;;;;;;;;;5112653;28;20096;-62
2023/02/10 01:13:40;;;;;;;11.30;4.77;;;;;;;;;;5106495;28;20051;-62
2023/02/10 01:16:13;;;;;;;10.47;4.47;;;;;;;;;;5095807;28;20066;-62
2023/02/10 01:18:40;;;;;;;9.07;4.87;;;;;;;;;;5097920;28;20023;-61
2023/02/10 01:21:08;;;;;;;8.73;4.33;;;;;;;;;;5096362;28;20458;-62
2023/02/10 01:23:34;;;;;;;3.87;2.50;;;;;;;;;;5090303;28;20093;-62
2023/02/10 01:26:01;;;;;;;6.50;4.43;;;;;;;;;;5090699;28;20034;-62
2023/02/10 01:28:28;;;;;;;19.40;5.60;;;;;;;;;;5090475;28;20028;-62
2023/02/10 01:30:55;;;;;;;6.80;3.40;;;;;;;;;;5090485;28;20380;-62
2023/02/10 01:33:22;;;;;;;11.97;4.53;;;;;;;;;;5092404;28;20099;-61
2023/02/10 01:35:48;;;;;;;4.90;3.00;;;;;;;;;;5095272;28;20052;-62
2023/02/10 01:38:15;;;;;;;8.53;2.83;;;;;;;;;;5095178;28;20498;-62
2023/02/10 01:40:42;;;;;;;6.47;4.03;;;;;;;;;;5094989;28;20036;-61
2023/02/10 01:43:15;;;;;;;7.27;4.20;;;;;;;;;;5095113;28;20032;-62
2023/02/10 01:45:42;;;;;;;6.17;3.03;;;;;;;;;;5094432;28;20017;-61
2023/02/10 01:48:12;;;;;;;7.33;5.00;;;;;;;;;;5090214;28;20027;-62
2023/02/10 01:50:51;;;;;;;9.43;5.07;;;;;;;;;;5090340;28;20054;-61
2023/02/10 01:53:17;;;;;;;4.50;3.13;;;;;;;;;;5089690;28;20424;-62
2023/02/10 01:55:47;;;;;;;6.23;4.20;;;;;;;;;;5090246;28;20074;-61
2023/02/10 01:58:15;;;;;;;16.63;6.17;;;;;;;;;;5104634;28;20092;-64
2023/02/10 02:00:42;;;;;;;5.87;3.87;;;;;;;;;;5098606;28;20053;-62
2023/02/10 02:03:09;;;;;;;8.37;4.20;;;;;;;;;;5094742;28;20502;-61
2023/02/10 02:05:37;;;;;;;5.07;3.73;;;;;;;;;;5076614;28;20038;-62
2023/02/10 02:08:09;;;;;;;5.53;3.73;;;;;;;;;;5094812;28;20024;-61
2023/02/10 02:10:56;;;;;;;4.17;3.27;;;;;;;;;;5093634;28;20378;-61
2023/02/10 02:13:22;;;;;;;7.20;3.40;;;;;;;;;;5089319;28;20032;-62
2023/02/10 02:15:56;;;;;;;7.20;4.57;;;;;;;;;;5105064;28;20028;-62
2023/02/10 02:18:37;;;;;;;7.82;5.40;;;;;;;;;;5109491;28;20039;-63
2023/02/10 02:21:07;;;;;;;7.83;4.77;;;;;;;;;;5107590;28;20103;-62
2023/02/10 02:23:34;;;;;;;5.90;4.23;;;;;;;;;;5100291;28;20490;-61
2023/02/10 02:26:06;;;;;;;11.03;6.77;;;;;;;;;;5094498;28;20116;-61
2023/02/10 02:28:51;;;;;;;11.50;5.27;;;;;;;;;;5094805;28;20067;-61
2023/02/10 02:31:36;;;;;;;8.40;5.07;;;;;;;;;;5094351;28;20024;-61
2023/02/10 02:34:08;;;;;;;7.78;5.07;;;;;;;;;;5102236;28;20498;-61
2023/02/10 02:36:37;;;;;;;18.13;4.97;;;;;;;;;;5093256;28;20036;-61
2023/02/10 02:39:05;;;;;;;10.00;6.00;;;;;;;;;;5088753;28;20028;-61
2023/02/10 02:41:33;;;;;;;5.27;3.80;;;;;;;;;;5089251;28;20016;-61
2023/02/10 02:44:00;;;;;;;36.70;5.97;;;;;;;;;;5089254;28;20043;-61
2023/02/10 02:46:27;;;;;;;5.23;4.27;;;;;;;;;;5089330;28;20734;-62
2023/02/10 02:48:58;;;;;;;19.70;6.23;;;;;;;;;;5092871;28;20535;-61
2023/02/10 02:51:25;;;;;;;8.27;4.50;;;;;;;;;;5093967;28;20024;-61
2023/02/10 02:54:01;;;;;;;7.07;4.23;;;;;;;;;;5093473;28;20024;-61
2023/02/10 02:56:48;;;;;;;7.30;3.30;;;;;;;;;;5076010;28;20419;-61
2023/02/10 02:59:35;;;;;;;11.40;4.80;;;;;;;;;;5032863;28;20040;-61
2023/02/10 03:02:03;;;;;;;6.20;4.40;;;;;;;;;;5068845;28;20051;-61
2023/02/10 03:04:33;;;;;;;14.83;6.00;;;;;;;;;;5069022;28;20104;-61
2023/02/10 03:07:00;;;;;;;8.43;5.00;;;;;;;;;;5071247;28;20364;-61
2023/02/10 03:09:28;;;;;;;6.97;3.77;;;;;;;;;;5088948;28;20035;-61
2023/02/10 03:11:55;;;;;;;8.17;3.20;;;;;;;;;;5088982;28;20028;-61
2023/02/10 03:14:21;;;;;;;6.70;3.37;;;;;;;;;;5093804;28;20099;-61
2023/02/10 03:16:48;;;;;;;6.53;4.43;;;;;;;;;;5107055;28;20462;-61
2023/02/10 03:19:16;;;;;;;12.30;6.27;;;;;;;;;;5112001;28;20036;-60
2023/02/10 03:21:43;;;;;;;8.47;5.53;;;;;;;;;;5104771;28;20020;-62
2023/02/10 03:24:10;;;;;;;10.23;6.30;;;;;;;;;;5094521;28;20024;-61
2023/02/10 03:26:37;;;;;;;7.53;5.33;;;;;;;;;;5100569;28;20110;-61
2023/02/10 03:29:04;;;;;;;10.87;5.10;;;;;;;;;;5109032;28;20420;-61
2023/02/10 03:31:31;;;;;;;10.27;6.00;;;;;;;;;;5107260;28;20051;-61
2023/02/10 03:33:58;;;;;;;7.60;5.60;;;;;;;;;;5107926;28;20031;-61
2023/02/10 03:36:25;;;;;;;19.37;5.87;;;;;;;;;;5104850;28;20389;-61
2023/02/10 03:38:51;;;;;;;8.93;3.57;;;;;;;;;;5101433;28;20486;-62
2023/02/10 03:41:18;;;;;;;5.47;3.87;;;;;;;;;;5109247;28;20027;-61
2023/02/10 03:43:45;;;;;;;4.93;3.60;;;;;;;;;;5105660;28;20039;-61
2023/02/10 03:46:12;;;;;;;6.63;4.90;;;;;;;;;;5113244;28;20019;-61
2023/02/10 03:48:39;;;;;;;9.63;6.07;;;;;;;;;;5112905;28;20494;-61
2023/02/10 03:51:07;;;;;;;7.23;4.70;;;;;;;;;;5109821;28;20474;-61
2023/02/10 03:53:36;;;;;;;7.10;4.80;;;;;;;;;;5106430;28;20507;-61
2023/02/10 03:56:03;;;;;;;6.63;3.27;;;;;;;;;;5067994;28;20097;-61
2023/02/10 03:58:30;;;;;;;6.37;4.30;;;;;;;;;;5067859;28;20024;-61
2023/02/10 04:00:56;;;;;;;6.17;4.03;;;;;;;;;;5067750;28;20025;-61
2023/02/10 04:03:23;;;;;;;11.40;5.93;;;;;;;;;;5071475;28;20032;-61
2023/02/10 04:05:50;;;;;;;6.77;4.53;;;;;;;;;;5097952;28;20024;-61
2023/02/10 04:08:17;;;;;;;5.10;3.47;;;;;;;;;;5092599;28;20032;-62
2023/02/10 04:10:43;;;;;;;3.10;2.73;;;;;;;;;;5092553;28;20084;-61
2023/02/10 04:13:10;;;;;;;8.63;4.37;;;;;;;;;;5093494;28;20028;-61
2023/02/10 04:15:37;;;;;;;9.97;6.27;;;;;;;;;;5090078;28;20032;-61
2023/02/10 04:18:04;;;;;;;5.50;4.43;;;;;;;;;;5088152;28;20107;-61
2023/02/10 04:20:31;;;;;;;26.00;7.10;;;;;;;;;;5087645;28;20499;-61
2023/02/10 04:22:58;;;;;;;7.40;5.57;;;;;;;;;;5092149;28;20498;-61
2023/02/10 04:25:24;;;;;;;8.13;5.43;;;;;;;;;;5088637;28;20020;-61
2023/02/10 04:27:51;;;;;;;8.37;5.57;;;;;;;;;;5090948;28;20024;-61
2023/02/10 04:30:18;;;;;;;12.00;6.17;;;;;;;;;;5105987;28;20489;-61
2023/02/10 04:32:44;;;;;;;6.30;4.93;;;;;;;;;;5109188;28;20024;-61
2023/02/10 04:35:11;;;;;;;4.43;3.63;;;;;;;;;;5087610;28;20111;-61
2023/02/10 04:37:38;;;;;;;3.23;2.80;;;;;;;;;;5110565;28;20433;-61
2023/02/10 04:40:05;;;;;;;11.67;5.87;;;;;;;;;;5109784;28;20119;-61
2023/02/10 04:42:31;;;;;;;5.10;3.63;;;;;;;;;;5107675;28;20036;-61
2023/02/10 04:44:59;;;;;;;7.47;5.10;;;;;;;;;;5109110;28;20034;-61
2023/02/10 04:47:26;;;;;;;7.10;3.67;;;;;;;;;;5104514;28;20255;-60
2023/02/10 04:49:54;;;;;;;11.70;4.67;;;;;;;;;;5095982;28;20120;-60
2023/02/10 04:52:20;;;;;;;5.63;3.87;;;;;;;;;;5096900;28;20016;-61
2023/02/10 04:54:47;;;;;;;6.53;4.03;;;;;;;;;;5108551;28;20019;-61
2023/02/10 04:57:14;;;;;;;7.60;5.33;;;;;;;;;;5110588;28;20110;-61
2023/02/10 04:59:40;;;;;;;4.33;3.13;;;;;;;;;;5115416;28;20039;-59
2023/02/10 05:02:07;;;;;;;7.00;3.40;;;;;;;;;;5111115;28;20035;-58
2023/02/10 05:04:34;;;;;;;3.57;2.77;;;;;;;;;;5096418;28;20028;-59
2023/02/10 05:07:01;;;;;;;5.57;3.63;;;;;;;;;;5093851;28;20050;-58
2023/02/10 05:09:28;;;;;;;5.57;3.53;;;;;;;;;;5093634;28;20489;-58
2023/02/10 05:11:55;;;;;;;29.33;5.33;;;;;;;;;;5093745;28;20028;-59
2023/02/10 05:14:22;;;;;;;6.17;4.80;;;;;;;;;;5093185;28;20077;-58
2023/02/10 05:16:48;;;;;;;5.47;3.13;;;;;;;;;;5096143;28;20030;-59
2023/02/10 05:19:15;;;;;;;5.20;3.83;;;;;;;;;;5098906;28;20036;-60
2023/02/10 05:21:42;;;;;;;13.03;4.37;;;;;;;;;;5112505;28;20034;-60
2023/02/10 05:24:08;;;;;;;5.90;3.47;;;;;;;;;;5116526;28;20027;-60
2023/02/10 05:26:35;;;;;;;5.23;4.70;;;;;;;;;;5112295;28;20490;-59
2023/02/10 05:29:02;;;;;;;5.53;4.23;;;;;;;;;;5097312;28;20396;-59
2023/02/10 05:31:28;;;;;;;10.90;5.37;;;;;;;;;;5093368;28;20634;-60
2023/02/10 05:33:55;;;;;;;10.47;6.53;;;;;;;;;;5093766;28;20016;-59
2023/02/10 05:36:22;;;;;;;16.17;7.33;;;;;;;;;;5093963;28;20050;-59
2023/02/10 05:41:34;;;;;;;11.10;5.03;;;;;;;;;;5116359;28;20042;-59
2023/02/10 05:44:00;;;;;;;9.03;5.63;;;;;;;;;;5118483;28;20024;-60
2023/02/10 05:46:27;;;;;;;6.37;4.10;;;;;;;;;;5118626;28;20030;-59
2023/02/10 05:48:54;;;;;;;4.33;3.43;;;;;;;;;;5118802;28;20490;-59
2023/02/10 05:51:20;;;;;;;5.30;4.23;;;;;;;;;;5109587;28;20028;-59
2023/02/10 05:53:47;;;;;;;9.40;5.03;;;;;;;;;;5099363;28;20019;-60
2023/02/10 05:56:14;;;;;;;3.80;3.27;;;;;;;;;;5111828;28;20374;-59
2023/02/10 05:58:40;;;;;;;3.33;2.63;;;;;;;;;;5103815;28;20102;-60
2023/02/10 06:01:08;;;;;;;10.60;4.77;;;;;;;;;;5110531;28;20571;-59
2023/02/10 06:03:34;;;;;;;6.33;4.23;;;;;;;;;;5110402;28;20040;-59
2023/02/10 06:06:01;;;;;;;4.70;3.43;;;;;;;;;;5112191;28;20070;-60
2023/02/10 06:08:28;;;;;;;3.83;3.13;;;;;;;;;;5115095;28;20099;-59
2023/02/10 06:10:55;;;;;;;7.60;5.40;;;;;;;;;;5096821;28;20020;-59
2023/02/10 06:13:22;;;;;;;3.07;2.43;;;;;;;;;;5115318;28;20024;-59
2023/02/10 06:15:48;;;;;;;5.50;4.57;;;;;;;;;;5115215;28;20020;-59
2023/02/10 06:18:15;;;;;;;4.40;3.97;;;;;;;;;;5112814;28;20103;-59
2023/02/10 06:20:42;;;;;;;9.30;5.83;;;;;;;;;;5109275;28;20038;-59
2023/02/10 06:23:09;;;;;;;5.23;3.80;;;;;;;;;;5109530;28;20027;-59
2023/02/10 06:25:36;;;;;;;10.37;4.40;;;;;;;;;;5109514;28;20024;-60
2023/02/10 06:28:03;;;;;;;5.43;3.20;;;;;;;;;;5110416;28;20030;-59
2023/02/10 06:30:29;;;;;;;7.53;4.43;;;;;;;;;;5101877;28;20106;-59
2023/02/10 06:32:56;;;;;;;4.17;2.70;;;;;;;;;;5113000;28;20028;-60
2023/02/10 06:35:23;;;;;;;6.17;4.73;;;;;;;;;;5114815;28;20470;-59
2023/02/10 06:37:49;;;;;;;15.77;6.63;;;;;;;;;;5096135;28;20035;-59
2023/02/10 06:40:16;;;;;;;10.57;4.47;;;;;;;;;;5113438;28;20081;-59
2023/02/10 06:42:43;;;;;;;8.70;4.60;;;;;;;;;;5091833;28;20545;-60
2023/02/10 06:45:10;;;;;;;8.40;5.03;;;;;;;;;;5109190;28;20034;-59
2023/02/10 06:47:36;;;;;;;12.23;5.43;;;;;;;;;;5109157;28;20107;-59
2023/02/10 06:50:04;;;;;;;7.07;4.17;;;;;;;;;;5109261;28;20015;-59
2023/02/10 06:52:31;;;;;;;6.80;4.53;;;;;;;;;;5114153;28;20469;-59
2023/02/10 06:54:58;;;;;;;7.20;3.50;;;;;;;;;;5114034;28;20020;-59
2023/02/10 06:57:25;;;;;;;6.50;3.03;;;;;;;;;;5114705;28;20020;-59
2023/02/10 06:59:52;;;;;;;11.33;6.43;;;;;;;;;;5114441;28;20024;-59
2023/02/10 07:02:19;;;;;;;6.53;4.57;;;;;;;;;;5113525;28;20019;-59
2023/02/10 07:04:46;;;;;;;9.80;5.37;;;;;;;;;;5108393;28;20382;-59
2023/02/10 07:07:12;;;;;;;8.73;6.10;;;;;;;;;;5108245;28;20016;-60
2023/02/10 07:09:39;;;;;;;8.43;4.77;;;;;;;;;;5107905;28;20494;-59
2023/02/10 07:12:06;;;;;;;5.47;4.00;;;;;;;;;;5108195;28;20027;-59
2023/02/10 07:14:32;;;;;;;10.17;7.13;;;;;;;;;;5114094;28;20019;-59
2023/02/10 07:16:59;;;;;;;8.30;5.57;;;;;;;;;;5106643;28;20471;-59
2023/02/10 07:19:27;;;;;;;12.10;7.03;;;;;;;;;;5093450;28;20024;-59
2023/02/10 07:21:53;;;;;;;5.97;4.83;;;;;;;;;;5093252;28;20109;-59
2023/02/10 07:24:20;;;;;;;4.67;4.03;;;;;;;;;;5093528;28;20028;-59
2023/02/10 07:26:47;;;;;;;8.07;5.57;;;;;;;;;;5087946;28;20519;-59
2023/02/10 07:29:13;;;;;;;9.37;6.50;;;;;;;;;;5087701;28;20382;-60
2023/02/10 07:31:40;;;;;;;6.27;5.03;;;;;;;;;;5087957;28;20031;-59
2023/02/10 07:34:07;;;;;;;13.30;6.30;;;;;;;;;;5087904;28;20016;-59
2023/02/10 07:36:34;;;;;;;11.63;6.27;;;;;;;;;;5092605;28;20028;-59
2023/02/10 07:39:00;;;;;;;7.33;5.57;;;;;;;;;;5092865;28;20118;-59
2023/02/10 07:41:27;;;;;;;11.80;4.90;;;;;;;;;;5093239;28;20027;-59
2023/02/10 07:43:54;;;;;;;9.07;4.07;;;;;;;;;;5092850;28;20044;-59
2023/02/10 07:46:20;;;;;;;6.20;5.33;;;;;;;;;;5092828;28;20020;-60
2023/02/10 07:48:47;;;;;;;6.83;4.60;;;;;;;;;;5088103;28;20595;-59
2023/02/10 07:51:14;;;;;;;12.93;6.67;;;;;;;;;;5092034;28;20428;-59
2023/02/10 07:53:42;;;;;;;6.73;3.87;;;;;;;;;;5107932;28;20444;-59
2023/02/10 07:56:09;;;;;;;4.70;3.87;;;;;;;;;;5107580;28;20057;-59
2023/02/10 07:58:37;;;;;;;7.63;4.47;;;;;;;;;;5111861;28;20069;-59
2023/02/10 08:01:10;;;;;;;5.37;3.87;;;;;;;;;;5112278;28;20032;-59
2023/02/10 08:03:37;;;;;;;5.67;4.80;;;;;;;;;;5113029;28;20039;-59
2023/02/10 08:06:05;;;;;;;15.73;8.83;;;;;;;;;;5113239;28;20481;-59
2023/02/10 08:08:32;;;;;;;7.77;5.10;;;;;;;;;;5113089;28;20024;-59
2023/02/10 08:10:59;;;;;;;8.07;6.67;;;;;;;;;;5108260;28;20027;-59
2023/02/10 08:13:27;;;;;;;4.17;3.13;;;;;;;;;;5107047;28;20031;-60
2023/02/10 08:15:54;;;;;;;5.27;3.80;;;;;;;;;;5107120;28;20116;-60
2023/02/10 08:18:20;;;;;;;5.40;4.23;;;;;;;;;;5107289;28;20030;-60
2023/02/10 08:20:47;;;;;;;10.47;6.40;;;;;;;;;;5110807;28;20027;-59
2023/02/10 08:23:15;;;;;;;7.70;6.13;;;;;;;;;;5112896;28;20032;-59
2023/02/10 08:25:42;;;;;;;5.03;3.60;;;;;;;;;;5112478;28;20039;-59
2023/02/10 08:28:08;;;;;;;6.90;5.20;;;;;;;;;;5112710;28;20084;-59
2023/02/10 08:30:35;;;;;;;8.13;6.80;;;;;;;;;;5112915;28;20015;-59
2023/02/10 08:33:02;;;;;;;8.83;6.50;;;;;;;;;;5108038;28;20051;-59
2023/02/10 08:35:29;;;;;;;8.40;5.43;;;;;;;;;;5107452;28;20028;-59
2023/02/10 08:37:55;;;;;;;8.43;6.00;;;;;;;;;;5106669;28;20027;-58
2023/02/10 08:40:22;;;;;;;7.07;5.13;;;;;;;;;;5107254;28;20027;-60
2023/02/10 08:42:49;;;;;;;8.47;4.13;;;;;;;;;;5110329;28;20451;-59
2023/02/10 08:45:15;;;;;;;7.60;5.53;;;;;;;;;;5112577;28;20535;-60
2023/02/10 08:47:42;;;;;;;11.43;6.03;;;;;;;;;;5112670;28;20059;-59
2023/02/10 08:50:09;;;;;;;4.00;3.23;;;;;;;;;;5111775;28;20048;-58
2023/02/10 08:52:36;;;;;;;4.30;3.40;;;;;;;;;;5112738;28;20055;-59
2023/02/10 08:55:02;;;;;;;5.83;4.63;;;;;;;;;;5095614;28;20395;-58
2023/02/10 08:57:29;;;;;;;6.10;4.47;;;;;;;;;;5086686;28;20552;-59
2023/02/10 08:59:56;;;;;;;4.90;4.10;;;;;;;;;;5086300;28;20104;-59
2023/02/10 09:02:22;;;;;;;6.00;4.83;;;;;;;;;;5086603;28;20467;-59
2023/02/10 09:04:49;;;;;;;4.57;3.77;;;;;;;;;;5096478;28;20039;-59
2023/02/10 09:07:16;;;;;;;5.17;3.97;;;;;;;;;;5112088;28;20068;-59
2023/02/10 09:09:43;;;;;;;19.53;4.00;;;;;;;;;;5109825;28;20044;-60
2023/02/10 09:12:11;;;;;;;5.90;4.70;;;;;;;;;;5091792;28;20024;-59
2023/02/10 09:14:41;;;;;;;5.33;3.87;;;;;;;;;;5092003;28;20012;-59
2023/02/10 09:17:08;;;;;;;4.17;3.57;;;;;;;;;;5088792;28;20032;-59
2023/02/10 09:19:35;;;;;;;6.70;4.80;;;;;;;;;;5086104;28;20479;-59
2023/02/10 09:22:03;;;;;;;7.37;5.23;;;;;;;;;;5085882;28;20034;-59
2023/02/10 09:24:30;;;;;;;3.60;2.97;;;;;;;;;;5086749;28;20432;-59
2023/02/10 09:26:57;;;;;;;6.53;4.93;;;;;;;;;;5109274;28;20513;-59
2023/02/10 09:29:23;;;;;;;6.33;4.57;;;;;;;;;;5112081;28;20108;-59
2023/02/10 09:31:50;;;;;;;3.33;2.60;;;;;;;;;;5114036;28;20020;-59
2023/02/10 09:34:17;;;;;;;4.43;3.60;;;;;;;;;;5116053;28;20019;-60
2023/02/10 09:36:44;;;;;;;6.03;3.13;;;;;;;;;;5115678;28;20019;-59
2023/02/10 09:39:10;;;;;;;6.37;4.17;;;;;;;;;;5110718;28;20028;-59
2023/02/10 09:41:37;;;;;;;5.30;3.47;;;;;;;;;;5110454;28;20532;-59
2023/02/10 09:44:22;;;;;;;7.37;5.23;;;;;;;;;;5110188;28;20413;-59
2023/02/10 09:47:07;;;;;;;9.55;4.95;;;;;;;;;;5109837;28;20494;-59
2023/02/10 09:49:53;;;;;;;7.18;3.70;;;;;;;;;;5113739;28;20023;-59
2023/02/10 09:52:25;;;;;;;6.57;4.40;;;;;;;;;;5115754;28;20111;-59
2023/02/10 09:54:55;;;;;;;8.30;4.43;;;;;;;;;;5115563;28;20015;-59
2023/02/10 09:57:27;;;;;;;6.80;5.67;;;;;;;;;;5115235;28;20023;-58
2023/02/10 09:59:54;;;;;;;4.87;3.27;;;;;;;;;;5115312;28;20508;-58
2023/02/10 10:02:33;;;;;;;7.13;3.13;;;;;;;;;;5110032;28;20053;-59
2023/02/10 10:05:01;;;;;;;8.13;5.27;;;;;;;;;;5109865;28;20382;-58
2023/02/10 10:07:35;;;;;;;5.27;4.07;;;;;;;;;;5109885;28;20291;-59
2023/02/10 10:10:05;;;;;;;7.07;3.50;;;;;;;;;;5109704;28;20028;-58
2023/02/10 10:12:34;;;;;;;7.60;4.73;;;;;;;;;;5115053;28;20020;-59
2023/02/10 10:15:00;;;;;;;9.93;3.80;;;;;;;;;;5115297;28;20370;-59
2023/02/10 10:17:39;;;;;;;4.70;3.77;;;;;;;;;;5115296;28;20256;-59
2023/02/10 10:20:24;;;;;;;6.67;4.23;;;;;;;;;;5114276;28;20244;-59
2023/02/10 10:22:59;;;;;;;5.72;4.53;;;;;;;;;;5114384;28;20777;-59
2023/02/10 10:25:32;;;;;;;6.00;4.33;;;;;;;;;;5109541;28;20020;-59
2023/02/10 10:28:18;;;;;;;5.30;3.53;;;;;;;;;;5109505;28;20260;-59
2023/02/10 10:30:49;;;;;;;6.70;2.83;;;;;;;;;;5109241;28;20268;-58
2023/02/10 10:33:24;;;;;;;5.87;4.30;;;;;;;;;;5110991;28;20613;-59
2023/02/10 10:35:50;;;;;;;;;;;;;;;;;;5115201;28;20256;-58
2023/02/10 10:38:24;;;;;;;3.67;1.77;;;;;;;;;;5114555;28;20316;-59
2023/02/10 10:40:56;;;;;;;5.27;2.73;;;;;;;;;;5114730;28;20255;-58
2023/02/10 10:43:31;;;;;;;3.87;2.97;;;;;;;;;;5113821;28;20401;-58
2023/02/10 10:45:57;;;;;;;;;;;;;;;;;;5112253;28;20368;-58
2023/02/10 10:48:26;;;;;;;3.73;2.30;;;;;;;;;;5109272;28;19904;-59
2023/02/10 10:50:55;;;;;;;2.97;2.20;;;;;;;;;;5108591;28;20244;-58
2023/02/10 10:53:36;;;;;;;7.40;3.87;;;;;;;;;;5088659;28;20666;-59
2023/02/10 10:56:04;;;;;;;5.23;4.07;;;;;;;;;;5098418;28;20305;-58
2023/02/10 10:58:39;;;;;;;4.83;3.93;;;;;;;;;;5114264;28;20276;-59
2023/02/10 11:01:05;;;;;;;3.90;3.42;;;;;;;;;;5113657;28;20248;-59
2023/02/10 11:03:33;;;;;;;3.67;3.03;;;;;;;;;;5096121;28;20047;-58
2023/02/10 11:06:02;;;;;;;2.83;2.40;;;;;;;;;;5101227;28;20591;-59
2023/02/10 11:08:34;;;;;;;3.83;3.10;;;;;;;;;;5103924;28;20746;-59
2023/02/10 11:11:02;;;;;;;8.10;3.73;;;;;;;;;;5108523;28;20295;-58
2023/02/10 11:13:30;;;;;;;4.20;3.10;;;;;;;;;;5108524;28;20310;-58
2023/02/10 11:16:03;;;;;;;5.10;3.53;;;;;;;;;;5108207;28;20256;-59
2023/02/10 11:18:30;;;;;;;7.80;4.30;;;;;;;;;;5111561;28;20272;-58
2023/02/10 11:20:58;;;;;;;7.03;4.93;;;;;;;;;;5114099;28;20267;-58
2023/02/10 11:23:26;;;;;;;7.37;4.20;;;;;;;;;;5113733;28;20287;-58
2023/02/10 11:25:58;;;;;;;4.90;4.07;;;;;;;;;;5113885;28;20256;-58
2023/02/10 11:28:26;;;;;;;4.30;3.53;;;;;;;;;;5113097;28;20646;-58
2023/02/10 11:31:01;;;;;;;3.90;3.30;;;;;;;;;;5109757;28;20256;-59
2023/02/10 11:33:29;;;;;;;4.43;3.97;;;;;;;;;;5108110;28;20305;-58
2023/02/10 11:36:07;;;;;;;6.77;3.27;;;;;;;;;;5107892;28;20271;-58
2023/02/10 11:38:34;;;;;;;3.63;3.20;;;;;;;;;;5107993;28;20263;-58
2023/02/10 11:41:05;;;;;;;7.23;4.10;;;;;;;;;;5105024;28;20288;-58
2023/02/10 11:43:33;;;;;;;3.90;2.90;;;;;;;;;;5093102;28;20292;-59
2023/02/10 11:46:01;;;;;;;4.07;2.77;;;;;;;;;;5092477;28;20261;-59
2023/02/10 11:48:29;;;;;;;6.87;3.70;;;;;;;;;;5093007;28;20280;-58
2023/02/10 11:51:03;;;;;;;3.50;2.67;;;;;;;;;;5092961;28;20771;-59
2023/02/10 11:53:34;;;;;;;4.03;3.17;;;;;;;;;;5086983;28;20267;-58
2023/02/10 11:56:00;;;;;;;6.63;3.87;;;;;;;;;;5087245;28;20284;-59
2023/02/10 12:01:25;;;;;;;4.65;3.33;;;;;;;;;;5087305;28;20271;-59
2023/02/10 12:04:01;;;;;;;4.50;3.33;;;;;;;;;;5092641;28;20032;-58
2023/02/10 12:06:34;;;;;;;4.33;3.20;;;;;;;;;;5092764;28;20310;-58
2023/02/10 12:09:19;;;;;;;4.47;2.77;;;;;;;;;;5092725;28;20792;-58
2023/02/10 12:12:01;;;;;;;5.00;3.05;;;;;;;;;;5092312;28;20818;-58
2023/02/10 12:14:33;;;;;;;3.10;2.33;;;;;;;;;;5090398;28;20032;-58
2023/02/10 12:17:02;;;;;;;3.67;2.93;;;;;;;;;;5086944;28;20271;-58
2023/02/10 12:19:37;;;;;;;4.03;3.13;;;;;;;;;;5086807;28;20260;-60
2023/02/10 12:22:06;;;;;;;3.80;2.63;;;;;;;;;;5087048;28;20256;-59
2023/02/10 12:24:39;;;;;;;3.70;2.80;;;;;;;;;;5088941;28;20047;-59
2023/02/10 12:27:06;;;;;;;4.03;3.13;;;;;;;;;;5092544;28;20252;-58
2023/02/10 12:29:35;;;;;;;3.30;2.97;;;;;;;;;;5092427;28;20264;-58
2023/02/10 12:32:08;;;;;;;4.97;2.77;;;;;;;;;;5092403;28;20271;-58
2023/02/10 12:34:35;;;;;;;15.90;3.23;;;;;;;;;;5092459;28;20798;-58
2023/02/10 12:37:10;;;;;;;19.13;3.87;;;;;;;;;;5089309;28;20257;-58
2023/02/10 12:39:57;;;;;;;5.43;2.90;;;;;;;;;;5086754;28;20713;-58
2023/02/10 12:42:26;;;;;;;9.93;5.17;;;;;;;;;;5086254;28;20293;-58
2023/02/10 12:44:56;;;;;;;3.80;3.30;;;;;;;;;;5086625;28;20264;-58
2023/02/10 12:47:23;;;;;;;3.93;2.90;;;;;;;;;;5090300;28;20266;-58
2023/02/10 12:49:56;;;;;;;3.93;3.13;;;;;;;;;;5092098;28;20268;-58
2023/02/10 12:52:42;;;;;;;9.07;4.60;;;;;;;;;;5091938;28;20256;-58
2023/02/10 12:55:17;;;;;;;4.37;3.03;;;;;;;;;;5092192;28;20387;-58
2023/02/10 12:57:48;;;;;;;2.70;2.33;;;;;;;;;;5092196;28;20770;-57
2023/02/10 13:00:20;;;;;;;6.13;4.63;;;;;;;;;;5086650;28;20036;-58
2023/02/10 13:02:57;;;;;;;2.33;1.97;;;;;;;;;;5093731;28;20638;-58
2023/02/10 13:05:31;;;;;;;3.73;3.07;;;;;;;;;;5108377;28;20347;-59
2023/02/10 13:08:00;;;;;;;7.97;3.83;;;;;;;;;;5110966;28;20398;-59
2023/02/10 13:10:36;;;;;;;6.70;5.23;;;;;;;;;;5116420;28;20276;-58
2023/02/10 13:13:06;;;;;;;7.60;5.57;;;;;;;;;;5115685;28;20355;-58
2023/02/10 13:15:43;;;;;;;8.50;4.17;;;;;;;;;;5116394;28;20910;-58
2023/02/10 13:18:35;;;;;;;5.40;3.50;;;;;;;;;;5104593;28;20359;-58
2023/02/10 13:21:10;;;;;;;7.07;4.63;;;;;;;;;;5089045;28;20659;-58
2023/02/10 13:23:49;;;;;;;4.03;3.47;;;;;;;;;;5090252;28;20281;-58
2023/02/10 13:26:18;;;;;;;5.07;3.87;;;;;;;;;;5090352;28;20261;-58
2023/02/10 13:28:54;;;;;;;10.97;3.03;;;;;;;;;;5105629;28;20264;-59
2023/02/10 13:31:21;;;;;;;6.40;5.73;;;;;;;;;;5096349;28;20320;-58
2023/02/10 13:33:47;;;;;;;15.20;4.50;;;;;;;;;;5095502;28;20268;-59
2023/02/10 13:36:16;;;;;;;9.10;5.23;;;;;;;;;;5095642;28;20257;-58
2023/02/10 13:38:43;;;;;;;7.83;5.27;;;;;;;;;;5095508;28;20253;-59
2023/02/10 13:41:42;;;;;;;5.77;4.77;;;;;;;;;;5109868;28;20351;-58
2023/02/10 13:44:18;;;;;;;10.00;4.93;;;;;;;;;;5091906;28;20323;-58
2023/02/10 13:46:47;;;;;;;8.17;4.93;;;;;;;;;;5089890;28;20739;-58
2023/02/10 13:49:16;;;;;;;5.73;4.83;;;;;;;;;;5089536;28;20775;-60
2023/02/10 13:51:44;;;;;;;9.77;6.03;;;;;;;;;;5089467;28;20256;-60
2023/02/10 13:54:31;;;;;;;6.93;4.27;;;;;;;;;;5111532;28;20271;-58
2023/02/10 13:56:58;;;;;;;11.83;4.60;;;;;;;;;;5115550;28;20259;-58
2023/02/10 13:59:39;;;;;;;11.83;5.47;;;;;;;;;;5115541;28;20354;-58
2023/02/10 14:02:16;;;;;;;10.90;5.93;;;;;;;;;;5114852;28;20742;-59
2023/02/10 14:04:43;;;;;;;18.90;5.87;;;;;;;;;;5074630;28;20246;-60
2023/02/10 14:07:18;;;;;;;14.77;7.20;;;;;;;;;;5069224;28;20758;-59
2023/02/10 14:09:44;;;;;;;9.73;5.35;;;;;;;;;;5069272;28;20261;-59
2023/02/10 14:12:25;;;;;;;14.03;7.07;;;;;;;;;;5068779;28;20476;-59
2023/02/10 14:14:52;;;;;;;12.03;7.93;;;;;;;;;;5082120;28;20253;-59
2023/02/10 14:17:29;;;;;;;10.10;7.30;;;;;;;;;;5114708;28;20554;-59
2023/02/10 14:19:56;;;;;;;8.67;6.40;;;;;;;;;;5115040;28;20031;-59
2023/02/10 14:22:30;;;;;;;9.60;6.27;;;;;;;;;;5114800;28;20482;-59
2023/02/10 14:25:03;;;;;;;15.60;7.20;;;;;;;;;;5115115;28;20410;-60
2023/02/10 14:27:33;;;;;;;10.90;4.90;;;;;;;;;;5099037;28;20150;-59
2023/02/10 14:30:02;;;;;;;8.93;6.83;;;;;;;;;;5089350;28;20024;-59
2023/02/10 14:32:30;;;;;;;4.83;3.93;;;;;;;;;;5089210;28;20106;-59
2023/02/10 14:35:03;;;;;;;9.73;6.03;;;;;;;;;;5089116;28;20984;-59
2023/02/10 14:37:30;;;;;;;7.23;5.40;;;;;;;;;;5090668;28;20016;-59
2023/02/10 14:39:57;;;;;;;12.27;5.83;;;;;;;;;;5107049;28;20030;-59
2023/02/10 14:42:26;;;;;;;4.67;3.17;;;;;;;;;;5095272;28;20028;-59
2023/02/10 14:44:53;;;;;;;8.73;5.83;;;;;;;;;;5113120;28;20493;-59
2023/02/10 14:47:35;;;;;;;7.30;5.47;;;;;;;;;;5114259;28;20033;-59
2023/02/10 14:50:03;;;;;;;8.40;5.37;;;;;;;;;;5110033;28;20478;-60
2023/02/10 14:52:29;;;;;;;10.20;6.63;;;;;;;;;;5109111;28;20479;-60
2023/02/10 14:54:56;;;;;;;8.33;6.40;;;;;;;;;;5109244;28;20034;-60
2023/02/10 14:57:25;;;;;;;7.63;6.00;;;;;;;;;;5109152;28;20063;-60